createdAt,value
2022-08-25T07:15:39.624Z,99579.09
2022-08-25T07:17:12.087Z,99585.09
2022-08-25T07:18:46.042Z,99578.56
2022-08-25T07:20:19.331Z,99582.66
2022-08-25T07:21:53.508Z,99585.75
2022-08-25T07:23:26.372Z,99587.31
2022-08-25T07:24:58.361Z,99585.25
2022-08-25T07:26:38.938Z,99582.09
2022-08-25T07:28:11.425Z,99589.03
2022-08-25T07:29:44.999Z,99590.34
2022-08-25T07:31:18.825Z,99592.13
2022-08-25T07:32:51.346Z,99589.25
2022-08-25T07:34:52.609Z,99587.72
2022-08-25T07:36:25.970Z,99583.72
2022-08-25T07:37:58.469Z,99581.38
2022-08-25T07:39:31.630Z,99572.59
2022-08-25T07:41:03.902Z,99584.13
2022-08-25T07:42:36.451Z,99580.75
2022-08-25T07:44:12.300Z,99575.19
2022-08-25T07:45:49.409Z,99574.34
2022-08-25T07:47:23.061Z,99577.72
2022-08-25T07:48:55.325Z,99575.88
2022-08-25T07:50:30.119Z,99581.06
2022-08-25T07:52:05.050Z,99580.09
2022-08-25T07:53:39.676Z,99581.53
2022-08-25T07:55:12.392Z,99576.59
2022-08-25T07:56:50.472Z,99576.91
2022-08-25T07:58:22.672Z,99572.75
2022-08-25T07:59:55.107Z,99577.53
2022-08-25T08:01:27.433Z,99580.63
2022-08-25T08:03:01.234Z,99580.63
2022-08-25T08:04:37.441Z,99573.91
2022-08-25T08:06:11.377Z,99583.94
2022-08-25T08:07:43.994Z,99585.06
2022-08-25T08:09:16.874Z,99577.09
2022-08-25T08:11:05.421Z,99577.09
2022-08-25T08:12:38.228Z,99577.28
2022-08-25T08:14:10.636Z,99579.34
2022-08-25T08:15:44.138Z,99573.63
2022-08-25T08:17:16.642Z,99576.56
2022-08-25T08:18:49.588Z,99580.50
2022-08-25T08:20:23.491Z,99578.09
2022-08-25T08:21:55.781Z,99573.50
2022-08-25T08:23:30.477Z,99566.69
2022-08-25T08:25:03.041Z,99570.09
2022-08-25T08:26:57.548Z,99577.78
2022-08-25T08:28:28.399Z,99565.94
2022-08-25T08:30:01.037Z,99575.44
2022-08-25T08:31:34.954Z,99570.81
2022-08-25T08:33:11.322Z,99567.31
2022-08-25T08:34:44.631Z,99569.00
2022-08-25T08:36:17.277Z,99569.84
2022-08-25T08:37:49.523Z,99566.06
2022-08-25T08:39:27.918Z,99566.34
2022-08-25T08:42:07.664Z,99566.22
2022-08-25T08:43:36.075Z,99556.44
2022-08-25T08:45:24.509Z,99551.56
2022-08-25T08:47:09.101Z,99555.19
2022-08-25T08:48:53.723Z,99558.97
2022-08-25T08:50:37.925Z,99561.34
2022-08-25T08:52:10.862Z,99553.66
2022-08-25T08:54:16.595Z,99554.09
2022-08-25T08:55:55.685Z,99555.59
2022-08-25T08:57:29.440Z,99553.78
2022-08-25T08:59:12.551Z,99548.91
2022-08-25T09:00:52.223Z,99544.69
2022-08-25T09:02:49.903Z,99547.47
2022-08-25T09:04:32.796Z,99544.28
2022-08-25T09:06:18.568Z,99542.31
2022-08-25T09:08:01.858Z,99546.38
2022-08-25T09:09:36.074Z,99543.44
2022-08-25T09:11:10.193Z,99542.19
2022-08-25T09:13:04.981Z,99543.41
2022-08-25T09:31:03.154Z,99524.03
2022-08-25T09:32:48.882Z,99522.47
2022-08-25T09:34:32.798Z,99528.19
2022-08-25T09:36:09.099Z,99527.22
2022-08-25T09:37:41.572Z,99527.63
2022-08-25T09:39:14.215Z,99523.28
2022-08-25T09:40:52.682Z,99523.16
2022-08-25T09:42:50.098Z,99523.16
2022-08-25T09:44:28.989Z,99517.13
2022-08-25T09:46:04.073Z,99521.44
2022-08-25T09:47:43.821Z,99515.13
2022-08-25T09:49:17.418Z,99516.50
2022-08-25T09:50:50.028Z,99507.03
2022-08-25T09:52:22.618Z,99516.41
2022-08-25T09:54:20.940Z,99513.81
2022-08-25T09:56:05.071Z,99508.88
2022-08-25T09:57:48.455Z,99504.53
2022-08-25T09:59:35.852Z,99517.44
2022-08-25T10:01:22.815Z,99514.06
2022-08-25T10:03:12.191Z,99504.53
2022-08-25T10:04:44.657Z,99507.66
2022-08-25T10:06:19.188Z,99513.56
2022-08-25T10:07:58.596Z,99512.06
2022-08-25T10:09:42.631Z,99507.47
2022-08-25T10:11:34.482Z,99499.94
2022-08-25T10:13:16.918Z,99503.88
2022-08-25T10:14:55.585Z,99502.50
2022-08-25T10:16:36.447Z,99495.53
2022-08-25T10:18:30.507Z,99497.19
2022-08-25T10:20:10.347Z,99486.00
2022-08-25T10:21:44.293Z,99480.66
2022-08-25T10:23:17.224Z,99491.16
2022-08-25T10:24:49.946Z,99491.72
2022-08-25T10:26:41.630Z,99487.88
2022-08-25T10:28:33.504Z,99486.28
2022-08-25T10:30:14.866Z,99484.84
2022-08-25T10:31:58.329Z,99480.75
2022-08-25T10:33:36.819Z,99480.97
2022-08-25T10:35:15.062Z,99471.69
2022-08-25T10:37:12.023Z,99469.00
2022-08-25T10:39:01.489Z,99457.34
2022-08-25T10:40:58.339Z,99456.59
2022-08-25T10:42:33.692Z,99449.44
2022-08-25T10:44:34.659Z,99444.03
2022-08-25T10:46:25.174Z,99440.69
2022-08-25T10:47:57.861Z,99442.34
2022-08-25T10:49:55.529Z,99436.09
2022-08-25T10:51:52.303Z,99449.63
2022-08-25T10:53:29.769Z,99453.81
2022-08-25T10:55:18.489Z,99451.50
2022-08-25T10:57:03.507Z,99453.53
2022-08-25T10:58:55.453Z,99447.25
2022-08-25T11:00:37.596Z,99447.09
2022-08-25T11:02:50.949Z,99447.28
2022-08-25T11:04:45.541Z,99443.03
2022-08-25T11:06:38.251Z,99428.19
2022-08-25T11:08:29.098Z,99436.19
2022-08-25T11:10:10.205Z,99436.03
2022-08-25T11:12:11.574Z,99436.31
2022-08-25T11:13:46.622Z,99434.72
2022-08-25T11:15:27.147Z,99433.09
2022-08-25T11:17:06.466Z,99430.81
2022-08-25T11:19:05.549Z,99426.84
2022-08-25T11:20:47.658Z,99425.97
2022-08-25T11:22:42.897Z,99427.63
2022-08-25T11:24:38.229Z,99425.25
2022-08-25T11:26:15.669Z,99425.78
2022-08-25T11:27:59.185Z,99421.28
2022-08-25T11:29:37.582Z,99417.94
2022-08-25T11:31:12.665Z,99420.56
2022-08-25T11:32:48.858Z,99415.53
2022-08-25T11:34:22.219Z,99413.63
2022-08-25T11:35:58.786Z,99426.13
2022-08-25T11:37:33.341Z,99419.22
2022-08-25T11:39:17.889Z,99412.78
2022-08-25T11:41:16.156Z,99409.16
2022-08-25T11:42:48.454Z,99421.94
2022-08-25T11:44:38.781Z,99417.59
2022-08-25T11:46:29.142Z,99416.81
2022-08-25T11:48:25.913Z,99412.78
2022-08-25T11:50:05.962Z,99410.63
2022-08-25T11:51:48.348Z,99410.63
2022-08-25T11:53:28.125Z,99411.91
2022-08-25T11:55:15.902Z,99411.38
2022-08-25T11:57:11.274Z,99408.72
2022-08-25T11:58:54.393Z,99406.09
2022-08-25T12:00:39.670Z,99407.84
2022-08-25T12:02:33.742Z,99412.59
2022-08-25T12:04:16.609Z,99403.72
2022-08-25T12:06:14.426Z,99404.31
2022-08-25T12:08:12.673Z,99407.25
2022-08-25T12:09:50.676Z,99401.25
2022-08-25T12:11:46.431Z,99405.09
2022-08-25T12:13:45.699Z,99400.66
2022-08-25T12:15:26.112Z,99401.63
2022-08-25T12:17:00.858Z,99404.06
2022-08-25T12:18:33.227Z,99403.53
2022-08-25T12:20:06.093Z,99403.31
2022-08-25T12:21:38.436Z,99404.63
2022-08-25T12:23:10.884Z,99408.59
2022-08-25T12:24:48.155Z,99409.16
2022-08-25T12:26:25.076Z,99406.78
2022-08-25T12:28:09.222Z,99408.25
2022-08-25T12:29:53.957Z,99410.53
2022-08-25T12:31:33.387Z,99408.63
2022-08-25T12:33:12.072Z,99409.94
2022-08-25T12:34:47.790Z,99422.84
2022-08-25T12:36:35.311Z,99416.84
2022-08-25T12:38:44.188Z,99415.47
2022-08-25T12:40:38.339Z,99406.94
2022-08-25T12:42:33.442Z,99418.03
2022-08-25T12:44:43.049Z,99410.75
2022-08-25T12:46:29.845Z,99400.66
2022-08-25T12:48:26.700Z,99412.53
2022-08-25T12:50:28.648Z,99408.56
2022-08-25T12:52:13.231Z,99408.25
2022-08-25T12:54:19.121Z,99407.28
2022-08-25T12:56:02.752Z,99408.13
2022-08-25T12:57:40.988Z,99410.91
2022-08-25T12:59:24.195Z,99407.56
2022-08-25T13:01:35.852Z,99404.91
2022-08-25T13:03:46.012Z,99408.25
2022-08-25T13:05:21.068Z,99404.22
2022-08-25T13:07:03.791Z,99400.59
2022-08-25T13:09:08.290Z,99396.91
2022-08-25T13:10:53.231Z,99390.84
2022-08-25T13:12:51.948Z,99391.06
2022-08-25T13:14:37.867Z,99390.00
2022-08-25T13:16:25.600Z,99389.78
2022-08-25T13:18:21.237Z,99384.06
2022-08-25T13:20:11.868Z,99383.66
2022-08-25T13:21:44.743Z,99373.19
2022-08-25T13:23:29.187Z,99379.09
2022-08-25T13:25:01.701Z,99372.47
2022-08-25T13:26:38.500Z,99377.31
2022-08-25T13:28:36.362Z,99374.88
2022-08-25T13:30:23.620Z,99373.34
2022-08-25T13:32:01.025Z,99370.38
2022-08-25T13:33:34.583Z,99367.88
2022-08-25T13:35:26.593Z,99369.94
2022-08-25T13:37:30.551Z,99371.59
2022-08-25T13:39:45.546Z,99375.44
2022-08-25T13:41:28.886Z,99367.66
2022-08-25T13:43:06.461Z,99368.34
2022-08-25T13:44:42.031Z,99364.22
2022-08-25T13:46:24.919Z,99360.56
2022-08-25T13:47:58.831Z,99359.94
2022-08-25T13:49:31.473Z,99365.44
2022-08-25T13:51:31.335Z,99359.66
2022-08-25T13:53:11.334Z,99347.34
2022-08-25T13:54:45.239Z,99349.00
2022-08-25T13:56:38.735Z,99352.16
2022-08-25T13:58:16.751Z,99346.34
2022-08-25T14:00:01.791Z,99351.03
2022-08-25T14:01:48.703Z,99341.69
2022-08-25T14:03:38.052Z,99343.69
2022-08-25T14:05:11.784Z,99336.69
2022-08-25T14:06:44.752Z,99336.34
2022-08-25T14:08:33.148Z,99339.03
2022-08-25T14:10:07.311Z,99339.19
2022-08-25T14:11:45.393Z,99336.53
2022-08-25T14:13:32.831Z,99341.53
2022-08-25T14:15:10.591Z,99337.84
2022-08-25T14:16:52.009Z,99342.03
2022-08-25T14:18:31.947Z,99342.38
2022-08-25T14:20:07.393Z,99338.69
2022-08-25T14:21:42.045Z,99340.53
2022-08-25T14:23:20.671Z,99338.22
2022-08-25T14:24:54.559Z,99335.53
2022-08-25T14:26:26.930Z,99335.03
2022-08-25T14:28:06.801Z,99337.03
2022-08-25T14:29:41.036Z,99339.69
2022-08-25T14:31:46.550Z,99339.03
2022-08-25T14:33:21.438Z,99331.34
2022-08-25T14:34:53.911Z,99334.38
2022-08-25T14:36:31.391Z,99324.88
2022-08-25T14:38:11.932Z,99320.53
2022-08-25T14:39:45.567Z,99318.69
2022-08-25T14:41:18.694Z,99319.69
2022-08-25T14:44:23.790Z,99309.53
2022-08-25T14:46:01.112Z,99308.00
2022-08-25T14:47:35.152Z,99305.31
2022-08-25T14:49:10.768Z,99311.16
2022-08-25T14:50:43.231Z,99311.16
2022-08-25T14:52:24.911Z,99303.00
2022-08-25T14:54:01.388Z,99307.00
2022-08-25T14:55:33.871Z,99309.69
2022-08-25T14:57:09.147Z,99306.00
2022-08-25T14:58:48.523Z,99309.69
2022-08-25T15:00:27.391Z,99304.66
2022-08-25T15:02:00.919Z,99305.31
2022-08-25T15:03:47.440Z,99311.34
2022-08-25T15:05:28.354Z,99304.84
2022-08-25T15:07:02.780Z,99310.19
2022-08-25T15:08:54.436Z,99308.66
2022-08-25T15:10:26.669Z,99302.63
2022-08-25T15:12:01.390Z,99309.31
2022-08-25T15:13:33.637Z,99308.66
2022-08-25T15:15:07.879Z,99307.66
2022-08-25T15:16:47.094Z,99298.47
2022-08-25T15:18:22.511Z,99302.81
2022-08-25T15:19:55.226Z,99303.97
2022-08-25T15:21:27.956Z,99308.84
2022-08-25T15:23:01.395Z,99301.81
2022-08-25T15:24:38.942Z,99302.66
2022-08-25T15:26:16.016Z,99297.50
2022-08-25T15:27:49.783Z,99294.81
2022-08-25T15:29:23.947Z,99287.63
2022-08-25T15:30:56.352Z,99289.47
2022-08-25T15:32:29.151Z,99287.28
2022-08-25T15:34:01.632Z,99289.56
2022-08-25T15:35:35.001Z,99290.06
2022-08-25T15:38:56.427Z,99286.22
2022-08-25T15:40:29.268Z,99293.53
2022-08-25T15:42:01.630Z,99287.88
2022-08-25T15:43:33.951Z,99291.72
2022-08-25T15:45:08.199Z,99298.22
2022-08-25T15:46:45.131Z,99285.53
2022-08-25T15:48:22.110Z,99288.19
2022-08-25T15:50:11.700Z,99293.66
2022-08-25T15:51:50.828Z,99291.94
2022-08-25T15:54:56.190Z,99294.00
2022-08-25T15:56:28.588Z,99298.78
2022-08-25T15:59:33.708Z,99283.56
2022-08-25T16:04:56.500Z,99284.16
2022-08-25T16:06:28.905Z,99283.09
2022-08-25T16:08:01.159Z,99285.53
2022-08-25T16:14:50.111Z,99266.88
2022-08-25T16:16:26.783Z,99269.72
2022-08-25T16:21:29.028Z,99266.31
2022-08-25T16:23:04.128Z,99264.41
2022-08-25T16:24:38.751Z,99268.34
2022-08-25T16:26:13.110Z,99274.00
2022-08-25T16:27:45.796Z,99271.28
2022-08-25T16:29:18.834Z,99268.34
2022-08-25T16:30:53.303Z,99273.28
2022-08-25T16:32:26.120Z,99271.22
2022-08-25T16:33:59.709Z,99266.38
2022-08-25T16:35:32.108Z,99266.16
2022-08-25T16:37:04.882Z,99264.22
2022-08-25T16:38:41.869Z,99262.03
2022-08-25T16:40:25.027Z,99272.44
2022-08-25T16:41:58.892Z,99270.38
2022-08-25T16:43:31.029Z,99269.13
2022-08-25T16:46:44.408Z,99270.88
2022-08-25T16:48:16.887Z,99279.69
2022-08-25T16:49:50.268Z,99274.25
2022-08-25T16:51:29.521Z,99273.19
2022-08-25T16:53:23.920Z,99279.41
2022-08-25T16:55:16.134Z,99285.28
2022-08-25T16:56:48.654Z,99281.66
2022-08-25T16:58:26.275Z,99286.72
2022-08-25T17:00:00.447Z,99287.00
2022-08-25T17:01:36.359Z,99280.84
2022-08-25T17:03:08.914Z,99284.22
2022-08-25T17:04:41.284Z,99286.47
2022-08-25T17:06:15.148Z,99284.53
2022-08-25T17:08:11.124Z,99280.78
2022-08-25T17:09:43.263Z,99287.34
2022-08-25T17:11:22.266Z,99292.09
2022-08-25T17:12:54.491Z,99286.66
2022-08-25T17:14:26.748Z,99285.53
2022-08-25T17:16:01.640Z,99292.25
2022-08-25T17:17:37.258Z,99285.81
2022-08-25T17:19:12.997Z,99294.03
2022-08-25T17:20:45.848Z,99289.28
2022-08-25T17:22:18.139Z,99289.00
2022-08-25T17:23:51.385Z,99288.44
2022-08-25T17:25:23.784Z,99288.69
2022-08-25T17:27:01.429Z,99288.16
2022-08-25T17:28:34.672Z,99286.88
2022-08-25T17:30:07.747Z,99284.22
2022-08-25T17:31:40.402Z,99289.81
2022-08-25T17:33:15.192Z,99299.72
2022-08-25T17:34:47.565Z,99308.75
2022-08-25T17:36:20.101Z,99304.56
2022-08-25T17:37:59.537Z,99308.47
2022-08-25T17:39:31.688Z,99306.34
2022-08-25T17:41:08.393Z,99304.25
2022-08-25T17:42:41.252Z,99306.72
2022-08-25T17:44:14.125Z,99310.59
2022-08-25T17:45:49.029Z,99309.44
2022-08-25T17:47:21.156Z,99310.69
2022-08-25T17:48:53.970Z,99312.50
2022-08-25T17:50:27.164Z,99308.28
2022-08-25T17:51:59.790Z,99320.56
2022-08-25T17:53:32.191Z,99320.13
2022-08-25T17:55:04.690Z,99314.41
2022-08-25T17:56:41.610Z,99319.00
2022-08-25T18:01:43.226Z,99322.75
2022-08-25T18:03:15.704Z,99329.84
2022-08-25T18:04:48.217Z,99321.22
2022-08-25T18:06:21.294Z,99322.16
2022-08-25T18:07:54.568Z,99325.91
2022-08-25T18:09:26.770Z,99332.44
2022-08-25T18:10:59.472Z,99329.91
2022-08-25T18:12:31.912Z,99329.09
2022-08-25T18:14:04.357Z,99331.03
2022-08-25T18:15:42.579Z,99324.63
2022-08-25T18:17:15.054Z,99327.78
2022-08-25T18:18:55.134Z,99332.13
2022-08-25T18:20:29.952Z,99325.97
2022-08-25T18:22:04.732Z,99337.66
2022-08-25T18:23:36.778Z,99331.53
2022-08-25T18:25:11.489Z,99336.56
2022-08-25T18:26:43.765Z,99333.59
2022-08-25T18:28:16.953Z,99336.13
2022-08-25T18:29:49.310Z,99341.31
2022-08-25T18:31:26.299Z,99336.72
2022-08-25T18:32:59.823Z,99336.38
2022-08-25T18:34:32.751Z,99337.63
2022-08-25T18:36:09.466Z,99342.06
2022-08-25T18:38:00.302Z,99349.44
2022-08-25T18:39:51.080Z,99339.81
2022-08-25T18:41:23.402Z,99344.28
2022-08-25T18:43:01.353Z,99345.09
2022-08-25T18:44:36.619Z,99342.59
2022-08-25T18:46:09.015Z,99334.19
2022-08-25T18:47:42.465Z,99347.56
2022-08-25T18:49:16.125Z,99336.97
2022-08-25T18:50:51.881Z,99338.91
2022-08-25T18:52:24.421Z,99343.38
2022-08-25T18:53:59.150Z,99353.13
2022-08-25T18:55:33.867Z,99344.56
2022-08-25T18:57:08.215Z,99348.03
2022-08-25T18:58:41.266Z,99351.50
2022-08-25T19:00:16.772Z,99348.03
2022-08-25T19:01:49.402Z,99341.09
2022-08-25T19:03:23.747Z,99344.78
2022-08-25T19:04:56.301Z,99345.50
2022-08-25T19:06:29.906Z,99343.84
2022-08-25T19:08:07.881Z,99346.50
2022-08-25T19:09:40.455Z,99351.31
2022-08-25T19:11:13.218Z,99355.78
2022-08-25T19:12:47.206Z,99353.25
2022-08-25T19:14:26.271Z,99356.88
2022-08-25T19:15:59.011Z,99353.41
2022-08-25T19:17:32.027Z,99362.03
2022-08-25T19:19:14.756Z,99364.41
2022-08-25T19:20:47.395Z,99362.16
2022-08-25T19:22:38.474Z,99359.78
2022-08-25T19:24:13.792Z,99364.09
2022-08-25T19:25:46.159Z,99371.31
2022-08-25T19:27:19.480Z,99364.38
2022-08-25T19:28:54.947Z,99357.38
2022-08-25T19:30:30.725Z,99359.78
2022-08-25T19:32:03.109Z,99358.22
2022-08-25T19:33:44.710Z,99354.03
2022-08-25T19:35:30.453Z,99358.72
2022-08-25T19:37:05.838Z,99357.06
2022-08-25T19:38:38.705Z,99365.09
2022-08-25T19:40:12.281Z,99360.06
2022-08-25T19:41:47.983Z,99356.44
2022-08-25T19:43:21.769Z,99355.03
2022-08-25T19:44:55.953Z,99363.06
2022-08-25T19:46:35.363Z,99363.94
2022-08-25T19:48:08.504Z,99361.78
2022-08-25T19:49:40.901Z,99369.00
2022-08-25T19:51:16.407Z,99365.38
2022-08-25T19:52:51.636Z,99360.22
2022-08-25T19:54:46.414Z,99357.47
2022-08-25T19:56:18.747Z,99356.28
2022-08-25T19:57:51.918Z,99360.88
2022-08-25T19:59:40.509Z,99359.88
2022-08-25T20:01:16.578Z,99368.31
2022-08-25T20:02:51.666Z,99363.16
2022-08-25T20:04:24.518Z,99367.84
2022-08-25T20:05:57.102Z,99366.53
2022-08-25T20:07:33.029Z,99371.09
2022-08-25T20:09:05.886Z,99363.28
2022-08-25T20:10:41.872Z,99369.56
2022-08-25T20:13:47.653Z,99373.16
2022-08-25T20:15:21.973Z,99376.06
2022-08-25T20:16:55.991Z,99381.78
2022-08-25T20:18:28.613Z,99381.91
2022-08-25T20:20:04.541Z,99379.25
2022-08-25T20:21:39.646Z,99380.72
2022-08-25T20:23:30.664Z,99373.03
2022-08-25T20:25:13.303Z,99377.47
2022-08-25T20:26:46.423Z,99380.50
2022-08-25T20:28:19.284Z,99385.50
2022-08-25T20:29:54.340Z,99388.53
2022-08-25T20:31:27.082Z,99385.44
2022-08-25T20:33:00.084Z,99381.19
2022-08-25T20:34:33.541Z,99374.38
2022-08-25T20:36:06.418Z,99378.09
2022-08-25T20:37:39.235Z,99374.63
2022-08-25T20:39:11.857Z,99372.91
2022-08-25T20:40:44.485Z,99378.34
2022-08-25T20:42:17.178Z,99375.81
2022-08-25T20:43:49.599Z,99377.13
2022-08-25T20:45:22.838Z,99379.03
2022-08-25T20:46:55.016Z,99383.50
2022-08-25T20:48:27.856Z,99377.00
2022-08-25T20:50:03.353Z,99372.19
2022-08-25T20:51:39.080Z,99373.38
2022-08-25T20:53:13.827Z,99373.63
2022-08-25T20:54:46.912Z,99372.06
2022-08-25T20:56:24.106Z,99359.22
2022-08-25T20:57:56.277Z,99367.59
2022-08-25T20:59:29.436Z,99376.69
2022-08-25T21:01:01.816Z,99373.44
2022-08-25T21:02:34.340Z,99369.34
2022-08-25T21:04:09.387Z,99372.09
2022-08-25T21:05:42.899Z,99368.25
2022-08-25T21:07:15.518Z,99375.44
2022-08-25T21:08:48.117Z,99370.53
2022-08-25T21:10:20.713Z,99376.75
2022-08-25T21:11:54.215Z,99373.50
2022-08-25T21:20:08.831Z,99381.34
2022-08-25T21:21:42.138Z,99379.28
2022-08-25T21:23:15.742Z,99384.75
2022-08-25T21:24:48.138Z,99382.34
2022-08-25T21:26:23.691Z,99385.81
2022-08-25T21:27:58.384Z,99389.53
2022-08-25T21:29:30.552Z,99392.16
2022-08-25T21:31:06.935Z,99385.44
2022-08-25T21:32:40.266Z,99378.69
2022-08-25T21:34:28.787Z,99388.38
2022-08-25T21:36:01.851Z,99389.41
2022-08-25T21:37:35.567Z,99392.41
2022-08-25T21:39:07.898Z,99388.53
2022-08-25T21:40:40.464Z,99392.97
2022-08-25T21:42:17.259Z,99393.19
2022-08-25T21:43:50.708Z,99391.63
2022-08-25T21:45:22.874Z,99394.59
2022-08-25T21:46:54.993Z,99400.06
2022-08-25T21:48:30.541Z,99394.16
2022-08-25T21:50:02.908Z,99393.44
2022-08-25T21:51:40.782Z,99386.72
2022-08-25T21:53:13.326Z,99388.63
2022-08-25T21:54:45.785Z,99393.03
2022-08-25T21:56:22.696Z,99390.41
2022-08-25T21:57:58.780Z,99391.69
2022-08-25T21:59:33.511Z,99383.66
2022-08-25T22:01:10.948Z,99380.94
2022-08-25T22:02:46.119Z,99391.47
2022-08-25T22:04:18.359Z,99379.47
2022-08-25T22:05:50.829Z,99384.00
2022-08-25T22:07:24.648Z,99388.53
2022-08-25T22:08:57.085Z,99387.91
2022-08-25T22:23:21.929Z,99355.81
2022-08-25T22:25:00.341Z,99370.44
2022-08-25T22:26:34.423Z,99367.81
2022-08-25T22:28:07.170Z,99360.34
2022-08-25T22:29:46.859Z,99367.41
2022-08-25T22:31:20.905Z,99370.78
2022-08-25T22:32:53.137Z,99364.16
2022-08-25T22:34:30.697Z,99357.06
2022-08-25T22:36:12.792Z,99373.91
2022-08-25T22:37:44.971Z,99375.06
2022-08-25T22:39:17.106Z,99367.28
2022-08-25T22:40:49.260Z,99357.56
2022-08-25T22:42:25.602Z,99363.06
2022-08-25T22:43:58.726Z,99366.84
2022-08-25T22:45:32.876Z,99367.91
2022-08-25T22:47:06.001Z,99367.38
2022-08-25T22:48:38.578Z,99370.84
2022-08-25T22:50:11.061Z,99363.81
2022-08-25T22:51:43.342Z,99366.44
2022-08-25T22:54:54.491Z,99360.03
2022-08-25T22:56:33.335Z,99360.97
2022-08-25T22:58:05.358Z,99371.06
2022-08-25T22:59:38.536Z,99373.81
2022-08-25T23:01:15.802Z,99364.13
2022-08-25T23:02:48.956Z,99361.91
2022-08-25T23:04:21.436Z,99370.84
2022-08-25T23:05:55.501Z,99366.75
2022-08-25T23:07:29.729Z,99362.22
2022-08-25T23:09:02.580Z,99363.69
2022-08-25T23:10:35.301Z,99355.91
2022-08-25T23:12:07.771Z,99359.59
2022-08-25T23:13:42.034Z,99363.28
2022-08-25T23:15:14.270Z,99372.22
2022-08-25T23:16:47.054Z,99361.69
2022-08-25T23:18:19.225Z,99364.53
2022-08-25T23:19:51.981Z,99355.16
2022-08-25T23:21:43.257Z,99355.91
2022-08-25T23:23:15.438Z,99360.31
2022-08-25T23:24:49.228Z,99356.94
2022-08-25T23:26:22.071Z,99354.72
2022-08-25T23:27:54.308Z,99347.91
2022-08-25T23:29:27.970Z,99352.31
2022-08-25T23:31:00.267Z,99354.50
2022-08-25T23:32:32.295Z,99359.00
2022-08-25T23:34:05.871Z,99349.44
2022-08-25T23:35:38.181Z,99348.91
2022-08-25T23:37:11.475Z,99352.19
2022-08-25T23:38:46.085Z,99364.50
2022-08-25T23:40:24.618Z,99352.78
2022-08-25T23:41:56.891Z,99357.19
2022-08-25T23:43:28.899Z,99355.72
2022-08-25T23:45:01.029Z,99353.28
2022-08-25T23:46:35.755Z,99359.66
2022-08-25T23:48:07.864Z,99355.25
2022-08-25T23:49:40.253Z,99359.88
2022-08-25T23:51:13.141Z,99362.50
2022-08-25T23:52:45.264Z,99354.81
2022-08-25T23:54:19.793Z,99359.31
2022-08-25T23:55:54.560Z,99364.78
2022-08-25T23:57:27.460Z,99361.59
2022-08-25T23:59:01.552Z,99356.56
